sensor_id;sensor_type;location;lat;lon;timestamp;pressure;altitude;pressure_sealevel;temperature;humidity
69127;BME280;56688;50.234;19.292;2023-03-20T00:01:11;98485.90;;;5.55;62.58
69127;BME280;56688;50.234;19.292;2023-03-20T00:03:39;98482.31;;;5.48;62.85
69127;BME280;56688;50.234;19.292;2023-03-20T00:06:15;98480.02;;;5.47;62.70
69127;BME280;56688;50.234;19.292;2023-03-20T00:08:44;98475.31;;;5.48;62.91
69127;BME280;56688;50.234;19.292;2023-03-20T00:13:53;98470.80;;;5.63;62.49
69127;BME280;56688;50.234;19.292;2023-03-20T00:16:22;98473.41;;;5.75;61.89
69127;BME280;56688;50.234;19.292;2023-03-20T00:18:49;98477.54;;;5.83;61.60
69127;BME280;56688;50.234;19.292;2023-03-20T00:21:17;98479.88;;;5.90;61.39
69127;BME280;56688;50.234;19.292;2023-03-20T00:23:44;98477.44;;;5.94;61.20
69127;BME280;56688;50.234;19.292;2023-03-20T00:26:14;98476.58;;;6.01;61.16
69127;BME280;56688;50.234;19.292;2023-03-20T00:28:45;98473.73;;;6.04;60.70
69127;BME280;56688;50.234;19.292;2023-03-20T00:31:25;98471.88;;;6.05;60.71
69127;BME280;56688;50.234;19.292;2023-03-20T00:33:54;98471.50;;;6.00;60.94
69127;BME280;56688;50.234;19.292;2023-03-20T00:36:23;98472.00;;;5.92;60.71
69127;BME280;56688;50.234;19.292;2023-03-20T00:38:49;98471.65;;;5.82;60.55
69127;BME280;56688;50.234;19.292;2023-03-20T00:41:30;98472.48;;;5.69;60.74
69127;BME280;56688;50.234;19.292;2023-03-20T00:44:02;98471.52;;;5.54;61.13
69127;BME280;56688;50.234;19.292;2023-03-20T00:46:37;98476.59;;;5.44;61.52
69127;BME280;56688;50.234;19.292;2023-03-20T00:49:04;98472.50;;;5.32;61.75
69127;BME280;56688;50.234;19.292;2023-03-20T00:51:31;98473.29;;;5.21;62.24
69127;BME280;56688;50.234;19.292;2023-03-20T00:53:58;98476.83;;;5.11;62.80
69127;BME280;56688;50.234;19.292;2023-03-20T00:56:34;98478.97;;;5.01;62.99
69127;BME280;56688;50.234;19.292;2023-03-20T00:59:02;98477.31;;;4.93;63.48
69127;BME280;56688;50.234;19.292;2023-03-20T01:01:30;98477.81;;;4.85;63.81
69127;BME280;56688;50.234;19.292;2023-03-20T01:03:58;98475.59;;;4.77;64.24
69127;BME280;56688;50.234;19.292;2023-03-20T01:06:26;98473.32;;;4.68;64.74
69127;BME280;56688;50.234;19.292;2023-03-20T01:08:54;98472.58;;;4.59;65.01
69127;BME280;56688;50.234;19.292;2023-03-20T01:11:24;98468.17;;;4.52;65.35
69127;BME280;56688;50.234;19.292;2023-03-20T01:13:51;98467.94;;;4.47;65.77
69127;BME280;56688;50.234;19.292;2023-03-20T01:16:20;98467.50;;;4.44;66.02
69127;BME280;56688;50.234;19.292;2023-03-20T01:18:49;98466.56;;;4.43;66.37
69127;BME280;56688;50.234;19.292;2023-03-20T01:21:17;98464.42;;;4.43;66.66
69127;BME280;56688;50.234;19.292;2023-03-20T01:23:44;98463.75;;;4.45;67.03
69127;BME280;56688;50.234;19.292;2023-03-20T01:26:19;98462.83;;;4.49;67.21
69127;BME280;56688;50.234;19.292;2023-03-20T01:28:49;98462.30;;;4.53;66.79
69127;BME280;56688;50.234;19.292;2023-03-20T01:31:17;98463.98;;;4.57;66.57
69127;BME280;56688;50.234;19.292;2023-03-20T01:33:44;98461.91;;;4.60;66.15
69127;BME280;56688;50.234;19.292;2023-03-20T01:36:14;98465.44;;;4.62;65.95
69127;BME280;56688;50.234;19.292;2023-03-20T01:38:43;98465.27;;;4.62;65.92
69127;BME280;56688;50.234;19.292;2023-03-20T01:41:14;98464.22;;;4.60;66.30
69127;BME280;56688;50.234;19.292;2023-03-20T01:43:44;98467.20;;;4.57;66.31
69127;BME280;56688;50.234;19.292;2023-03-20T01:46:17;98468.63;;;4.53;66.58
69127;BME280;56688;50.234;19.292;2023-03-20T01:51:17;98474.20;;;4.45;66.81
69127;BME280;56688;50.234;19.292;2023-03-20T01:53:48;98474.95;;;4.44;67.31
69127;BME280;56688;50.234;19.292;2023-03-20T01:56:18;98474.80;;;4.45;67.37
69127;BME280;56688;50.234;19.292;2023-03-20T01:58:52;98474.33;;;4.47;67.44
69127;BME280;56688;50.234;19.292;2023-03-20T02:01:29;98478.44;;;4.49;67.32
69127;BME280;56688;50.234;19.292;2023-03-20T02:03:57;98484.11;;;4.48;67.38
69127;BME280;56688;50.234;19.292;2023-03-20T02:06:37;98486.55;;;4.46;67.06
69127;BME280;56688;50.234;19.292;2023-03-20T02:09:16;98490.15;;;4.43;67.20
69127;BME280;56688;50.234;19.292;2023-03-20T02:11:44;98487.38;;;4.40;67.22
69127;BME280;56688;50.234;19.292;2023-03-20T02:14:13;98489.30;;;4.36;67.22
69127;BME280;56688;50.234;19.292;2023-03-20T02:16:49;98489.79;;;4.35;67.45
69127;BME280;56688;50.234;19.292;2023-03-20T02:30:45;98487.70;;;4.43;67.68
69127;BME280;56688;50.234;19.292;2023-03-20T02:38:46;98483.48;;;4.43;67.66
69127;BME280;56688;50.234;19.292;2023-03-20T02:41:36;98480.20;;;4.41;67.64
69127;BME280;56688;50.234;19.292;2023-03-20T02:44:18;98476.27;;;4.36;67.79
69127;BME280;56688;50.234;19.292;2023-03-20T02:52:20;98473.84;;;4.32;68.56
69127;BME280;56688;50.234;19.292;2023-03-20T02:57:36;98473.39;;;4.40;68.82
69127;BME280;56688;50.234;19.292;2023-03-20T03:02:56;98474.90;;;4.50;68.56
69127;BME280;56688;50.234;19.292;2023-03-20T03:05:34;98474.09;;;4.53;68.55
69127;BME280;56688;50.234;19.292;2023-03-20T03:08:04;98478.13;;;4.53;68.45
69127;BME280;56688;50.234;19.292;2023-03-20T03:10:45;98474.91;;;4.52;68.48
69127;BME280;56688;50.234;19.292;2023-03-20T03:13:18;98473.14;;;4.48;68.58
69127;BME280;56688;50.234;19.292;2023-03-20T03:15:50;98469.84;;;4.42;68.81
69127;BME280;56688;50.234;19.292;2023-03-20T03:18:22;98467.52;;;4.35;69.01
69127;BME280;56688;50.234;19.292;2023-03-20T03:20:55;98463.02;;;4.33;69.25
69127;BME280;56688;50.234;19.292;2023-03-20T03:23:29;98463.96;;;4.34;69.32
69127;BME280;56688;50.234;19.292;2023-03-20T03:25:58;98462.07;;;4.39;69.71
69127;BME280;56688;50.234;19.292;2023-03-20T03:31:06;98459.55;;;4.52;69.60
69127;BME280;56688;50.234;19.292;2023-03-20T03:33:37;98461.80;;;4.56;69.35
69127;BME280;56688;50.234;19.292;2023-03-20T03:44:06;98458.28;;;4.66;69.11
69127;BME280;56688;50.234;19.292;2023-03-20T03:49:11;98456.67;;;4.70;69.15
69127;BME280;56688;50.234;19.292;2023-03-20T03:51:41;98460.30;;;4.76;68.69
69127;BME280;56688;50.234;19.292;2023-03-20T03:56:45;98449.50;;;4.99;67.23
69127;BME280;56688;50.234;19.292;2023-03-20T03:59:22;98449.40;;;5.18;66.18
69127;BME280;56688;50.234;19.292;2023-03-20T04:01:51;98454.34;;;5.41;65.69
69127;BME280;56688;50.234;19.292;2023-03-20T04:04:19;98454.98;;;5.62;64.76
69127;BME280;56688;50.234;19.292;2023-03-20T04:06:47;98452.34;;;5.80;64.16
69127;BME280;56688;50.234;19.292;2023-03-20T04:09:14;98452.59;;;5.97;63.59
69127;BME280;56688;50.234;19.292;2023-03-20T04:11:42;98451.95;;;6.13;62.61
69127;BME280;56688;50.234;19.292;2023-03-20T04:14:11;98453.79;;;6.28;61.66
69127;BME280;56688;50.234;19.292;2023-03-20T04:16:40;98454.98;;;6.41;61.51
69127;BME280;56688;50.234;19.292;2023-03-20T04:19:08;98455.80;;;6.50;61.35
69127;BME280;56688;50.234;19.292;2023-03-20T04:21:35;98459.05;;;6.58;61.12
69127;BME280;56688;50.234;19.292;2023-03-20T04:24:02;98458.20;;;6.62;60.83
69127;BME280;56688;50.234;19.292;2023-03-20T04:26:29;98457.20;;;6.67;60.65
69127;BME280;56688;50.234;19.292;2023-03-20T04:28:56;98453.59;;;6.71;60.64
69127;BME280;56688;50.234;19.292;2023-03-20T04:31:38;98449.05;;;6.74;60.65
69127;BME280;56688;50.234;19.292;2023-03-20T04:34:11;98450.17;;;6.75;60.10
69127;BME280;56688;50.234;19.292;2023-03-20T04:36:39;98447.07;;;6.76;59.97
69127;BME280;56688;50.234;19.292;2023-03-20T04:39:09;98445.00;;;6.78;59.83
69127;BME280;56688;50.234;19.292;2023-03-20T04:41:36;98449.11;;;6.79;59.73
69127;BME280;56688;50.234;19.292;2023-03-20T04:44:03;98450.13;;;6.81;59.23
69127;BME280;56688;50.234;19.292;2023-03-20T04:46:31;98447.30;;;6.83;59.37
69127;BME280;56688;50.234;19.292;2023-03-20T04:48:59;98446.30;;;6.84;59.61
69127;BME280;56688;50.234;19.292;2023-03-20T04:51:28;98449.55;;;6.85;59.56
69127;BME280;56688;50.234;19.292;2023-03-20T04:53:56;98455.56;;;6.87;59.62
69127;BME280;56688;50.234;19.292;2023-03-20T04:56:23;98457.88;;;6.88;59.46
69127;BME280;56688;50.234;19.292;2023-03-20T04:58:52;98460.59;;;6.89;58.90
69127;BME280;56688;50.234;19.292;2023-03-20T05:01:20;98467.62;;;6.91;58.93
69127;BME280;56688;50.234;19.292;2023-03-20T05:03:48;98463.86;;;6.93;58.90
69127;BME280;56688;50.234;19.292;2023-03-20T05:06:16;98465.91;;;6.94;59.23
69127;BME280;56688;50.234;19.292;2023-03-20T05:08:43;98466.22;;;6.93;58.94
69127;BME280;56688;50.234;19.292;2023-03-20T05:11:10;98467.55;;;6.92;59.16
69127;BME280;56688;50.234;19.292;2023-03-20T05:13:57;98470.67;;;6.93;58.79
69127;BME280;56688;50.234;19.292;2023-03-20T05:16:39;98472.42;;;6.94;58.67
69127;BME280;56688;50.234;19.292;2023-03-20T05:19:18;98469.89;;;6.95;59.17
69127;BME280;56688;50.234;19.292;2023-03-20T05:22:01;98467.33;;;6.96;59.19
69127;BME280;56688;50.234;19.292;2023-03-20T05:24:40;98471.48;;;6.96;59.03
69127;BME280;56688;50.234;19.292;2023-03-20T05:27:16;98473.29;;;6.96;59.49
69127;BME280;56688;50.234;19.292;2023-03-20T05:29:49;98477.07;;;6.97;59.46
69127;BME280;56688;50.234;19.292;2023-03-20T05:32:31;98474.55;;;6.93;60.14
69127;BME280;56688;50.234;19.292;2023-03-20T05:35:18;98479.52;;;6.85;60.36
69127;BME280;56688;50.234;19.292;2023-03-20T05:37:48;98475.73;;;6.76;60.54
69127;BME280;56688;50.234;19.292;2023-03-20T05:40:27;98485.27;;;6.64;61.07
69127;BME280;56688;50.234;19.292;2023-03-20T05:43:09;98482.86;;;6.55;60.70
69127;BME280;56688;50.234;19.292;2023-03-20T05:45:51;98486.31;;;6.58;60.77
69127;BME280;56688;50.234;19.292;2023-03-20T05:48:32;98487.55;;;6.59;61.02
69127;BME280;56688;50.234;19.292;2023-03-20T05:51:14;98490.63;;;6.57;61.64
69127;BME280;56688;50.234;19.292;2023-03-20T05:53:54;98487.80;;;6.57;62.12
69127;BME280;56688;50.234;19.292;2023-03-20T05:56:36;98485.09;;;6.57;62.42
69127;BME280;56688;50.234;19.292;2023-03-20T05:59:21;98485.13;;;6.57;62.55
69127;BME280;56688;50.234;19.292;2023-03-20T06:02:03;98490.89;;;6.63;62.91
69127;BME280;56688;50.234;19.292;2023-03-20T06:04:33;98496.04;;;6.73;62.23
69127;BME280;56688;50.234;19.292;2023-03-20T06:07:18;98495.36;;;6.87;62.21
69127;BME280;56688;50.234;19.292;2023-03-20T06:09:54;98495.96;;;7.09;62.31
69127;BME280;56688;50.234;19.292;2023-03-20T06:12:21;98500.31;;;7.35;60.77
69127;BME280;56688;50.234;19.292;2023-03-20T06:14:48;98502.36;;;7.59;60.36
69127;BME280;56688;50.234;19.292;2023-03-20T06:17:15;98499.92;;;7.80;59.67
69127;BME280;56688;50.234;19.292;2023-03-20T06:19:45;98496.88;;;7.97;59.43
69127;BME280;56688;50.234;19.292;2023-03-20T06:22:13;98498.52;;;8.11;59.13
69127;BME280;56688;50.234;19.292;2023-03-20T06:24:40;98505.08;;;8.27;59.06
69127;BME280;56688;50.234;19.292;2023-03-20T06:27:07;98509.72;;;8.43;58.77
69127;BME280;56688;50.234;19.292;2023-03-20T06:29:34;98509.04;;;8.58;58.63
69127;BME280;56688;50.234;19.292;2023-03-20T06:32:10;98507.55;;;8.74;58.36
69127;BME280;56688;50.234;19.292;2023-03-20T06:34:40;98508.13;;;8.90;57.82
69127;BME280;56688;50.234;19.292;2023-03-20T06:37:07;98506.20;;;9.08;57.96
69127;BME280;56688;50.234;19.292;2023-03-20T06:39:34;98509.41;;;9.28;57.46
69127;BME280;56688;50.234;19.292;2023-03-20T06:42:04;98512.17;;;9.50;56.00
69127;BME280;56688;50.234;19.292;2023-03-20T06:44:30;98509.55;;;9.65;54.48
69127;BME280;56688;50.234;19.292;2023-03-20T06:47:07;98512.90;;;9.75;53.86
69127;BME280;56688;50.234;19.292;2023-03-20T06:49:34;98515.39;;;9.82;53.51
69127;BME280;56688;50.234;19.292;2023-03-20T06:52:01;98512.36;;;9.87;53.32
69127;BME280;56688;50.234;19.292;2023-03-20T06:54:29;98516.08;;;9.89;53.18
69127;BME280;56688;50.234;19.292;2023-03-20T06:56:56;98515.20;;;9.92;53.11
69127;BME280;56688;50.234;19.292;2023-03-20T06:59:24;98515.84;;;9.95;52.92
69127;BME280;56688;50.234;19.292;2023-03-20T07:01:54;98514.27;;;9.98;52.84
69127;BME280;56688;50.234;19.292;2023-03-20T07:04:21;98513.93;;;10.02;52.81
69127;BME280;56688;50.234;19.292;2023-03-20T07:06:51;98520.72;;;10.03;52.71
69127;BME280;56688;50.234;19.292;2023-03-20T07:09:18;98524.52;;;10.06;52.84
69127;BME280;56688;50.234;19.292;2023-03-20T07:11:45;98528.35;;;10.08;52.68
69127;BME280;56688;50.234;19.292;2023-03-20T07:14:17;98531.73;;;10.05;52.65
69127;BME280;56688;50.234;19.292;2023-03-20T07:16:52;98534.20;;;9.99;52.73
69127;BME280;56688;50.234;19.292;2023-03-20T07:19:20;98536.76;;;9.96;52.92
69127;BME280;56688;50.234;19.292;2023-03-20T07:21:50;98541.15;;;9.90;53.01
69127;BME280;56688;50.234;19.292;2023-03-20T07:24:18;98546.33;;;9.84;53.21
69127;BME280;56688;50.234;19.292;2023-03-20T07:26:45;98544.71;;;9.78;53.45
69127;BME280;56688;50.234;19.292;2023-03-20T07:29:12;98541.92;;;9.74;53.77
69127;BME280;56688;50.234;19.292;2023-03-20T07:31:40;98541.36;;;9.78;54.34
69127;BME280;56688;50.234;19.292;2023-03-20T07:34:11;98539.72;;;9.87;54.46
69127;BME280;56688;50.234;19.292;2023-03-20T07:36:39;98544.08;;;9.98;54.69
69127;BME280;56688;50.234;19.292;2023-03-20T07:39:08;98541.04;;;10.13;54.92
69127;BME280;56688;50.234;19.292;2023-03-20T07:41:37;98538.94;;;10.32;55.24
69127;BME280;56688;50.234;19.292;2023-03-20T07:44:07;98538.63;;;10.53;54.92
69127;BME280;56688;50.234;19.292;2023-03-20T07:46:45;98541.35;;;10.68;55.08
69127;BME280;56688;50.234;19.292;2023-03-20T07:49:14;98543.53;;;10.82;55.08
69127;BME280;56688;50.234;19.292;2023-03-20T07:51:46;98543.08;;;10.97;55.26
69127;BME280;56688;50.234;19.292;2023-03-20T07:54:14;98545.88;;;11.14;54.98
69127;BME280;56688;50.234;19.292;2023-03-20T07:56:41;98539.11;;;11.29;54.82
69127;BME280;56688;50.234;19.292;2023-03-20T07:59:08;98545.03;;;11.42;55.12
69127;BME280;56688;50.234;19.292;2023-03-20T08:01:35;98549.38;;;11.50;55.11
69127;BME280;56688;50.234;19.292;2023-03-20T08:04:02;98545.08;;;11.57;55.76
69127;BME280;56688;50.234;19.292;2023-03-20T08:06:29;98542.88;;;11.64;55.09
69127;BME280;56688;50.234;19.292;2023-03-20T08:08:57;98543.63;;;11.71;55.17
69127;BME280;56688;50.234;19.292;2023-03-20T08:11:23;98544.12;;;11.77;55.09
69127;BME280;56688;50.234;19.292;2023-03-20T08:13:50;98545.43;;;11.84;55.12
69127;BME280;56688;50.234;19.292;2023-03-20T08:16:18;98549.23;;;11.90;55.40
69127;BME280;56688;50.234;19.292;2023-03-20T08:18:45;98543.19;;;11.98;56.11
69127;BME280;56688;50.234;19.292;2023-03-20T08:21:12;98537.65;;;12.15;56.24
69127;BME280;56688;50.234;19.292;2023-03-20T08:23:39;98541.56;;;12.31;56.79
69127;BME280;56688;50.234;19.292;2023-03-20T08:26:06;98547.80;;;12.40;57.49
69127;BME280;56688;50.234;19.292;2023-03-20T08:28:32;98549.27;;;12.45;57.94
69127;BME280;56688;50.234;19.292;2023-03-20T08:31:13;98548.58;;;12.40;58.34
69127;BME280;56688;50.234;19.292;2023-03-20T08:33:40;98552.84;;;12.33;58.26
69127;BME280;56688;50.234;19.292;2023-03-20T08:36:07;98557.33;;;12.27;58.36
69127;BME280;56688;50.234;19.292;2023-03-20T08:38:34;98560.31;;;12.23;58.55
69127;BME280;56688;50.234;19.292;2023-03-20T08:41:02;98557.90;;;12.19;58.48
69127;BME280;56688;50.234;19.292;2023-03-20T08:43:29;98554.70;;;12.13;58.59
69127;BME280;56688;50.234;19.292;2023-03-20T08:45:56;98554.24;;;12.07;58.53
69127;BME280;56688;50.234;19.292;2023-03-20T08:48:22;98555.63;;;12.04;59.14
69127;BME280;56688;50.234;19.292;2023-03-20T08:50:49;98556.86;;;12.10;59.10
69127;BME280;56688;50.234;19.292;2023-03-20T08:53:16;98556.19;;;12.15;58.87
69127;BME280;56688;50.234;19.292;2023-03-20T08:55:47;98553.89;;;12.21;57.22
69127;BME280;56688;50.234;19.292;2023-03-20T08:58:16;98549.88;;;12.27;56.55
69127;BME280;56688;50.234;19.292;2023-03-20T09:00:43;98548.46;;;12.34;55.66
69127;BME280;56688;50.234;19.292;2023-03-20T09:03:12;98550.02;;;12.41;55.28
69127;BME280;56688;50.234;19.292;2023-03-20T09:05:42;98550.23;;;12.57;54.99
69127;BME280;56688;50.234;19.292;2023-03-20T09:08:09;98551.50;;;12.79;54.89
69127;BME280;56688;50.234;19.292;2023-03-20T09:10:36;98549.91;;;12.96;54.79
69127;BME280;56688;50.234;19.292;2023-03-20T09:13:03;98555.70;;;13.15;54.62
69127;BME280;56688;50.234;19.292;2023-03-20T09:15:51;98555.14;;;13.37;54.33
69127;BME280;56688;50.234;19.292;2023-03-20T09:18:19;98549.77;;;13.56;54.85
69127;BME280;56688;50.234;19.292;2023-03-20T09:20:47;98549.48;;;13.69;56.71
69127;BME280;56688;50.234;19.292;2023-03-20T09:23:15;98553.51;;;13.74;56.87
69127;BME280;56688;50.234;19.292;2023-03-20T09:25:42;98561.48;;;13.73;57.21
69127;BME280;56688;50.234;19.292;2023-03-20T09:28:09;98560.36;;;13.66;57.67
69127;BME280;56688;50.234;19.292;2023-03-20T09:30:35;98559.91;;;13.61;57.90
69127;BME280;56688;50.234;19.292;2023-03-20T09:33:03;98559.86;;;13.61;58.18
69127;BME280;56688;50.234;19.292;2023-03-20T09:35:30;98560.57;;;13.66;58.53
69127;BME280;56688;50.234;19.292;2023-03-20T09:37:57;98560.98;;;13.72;58.31
69127;BME280;56688;50.234;19.292;2023-03-20T09:40:29;98556.55;;;13.84;58.16
69127;BME280;56688;50.234;19.292;2023-03-20T09:43:04;98555.08;;;14.03;58.01
69127;BME280;56688;50.234;19.292;2023-03-20T09:51:01;98545.79;;;14.41;57.56
69127;BME280;56688;50.234;19.292;2023-03-20T09:53:37;98545.04;;;14.71;56.88
69127;BME280;56688;50.234;19.292;2023-03-20T09:56:13;98542.89;;;15.03;56.74
69127;BME280;56688;50.234;19.292;2023-03-20T09:58:47;98544.45;;;15.42;55.94
69127;BME280;56688;50.234;19.292;2023-03-20T10:01:18;98541.48;;;15.61;54.96
69127;BME280;56688;50.234;19.292;2023-03-20T10:04:04;98547.70;;;15.66;54.23
69127;BME280;56688;50.234;19.292;2023-03-20T10:06:33;98545.41;;;15.61;54.16
69127;BME280;56688;50.234;19.292;2023-03-20T10:09:02;98549.31;;;15.34;54.89
69127;BME280;56688;50.234;19.292;2023-03-20T10:14:37;98553.30;;;15.07;56.33
69127;BME280;56688;50.234;19.292;2023-03-20T10:17:24;98547.91;;;15.00;56.85
69127;BME280;56688;50.234;19.292;2023-03-20T10:19:58;98551.45;;;15.05;57.32
69127;BME280;56688;50.234;19.292;2023-03-20T10:22:31;98540.60;;;15.18;57.45
69127;BME280;56688;50.234;19.292;2023-03-20T10:27:45;98543.10;;;15.65;56.00
69127;BME280;56688;50.234;19.292;2023-03-20T10:35:27;98537.06;;;15.97;54.94
69127;BME280;56688;50.234;19.292;2023-03-20T10:38:11;98538.22;;;15.76;55.29
69127;BME280;56688;50.234;19.292;2023-03-20T10:40:42;98539.32;;;15.54;55.96
69127;BME280;56688;50.234;19.292;2023-03-20T10:46:01;98541.55;;;15.31;56.75
69127;BME280;56688;50.234;19.292;2023-03-20T10:48:33;98536.36;;;15.22;57.16
69127;BME280;56688;50.234;19.292;2023-03-20T10:51:03;98538.73;;;15.10;57.58
69127;BME280;56688;50.234;19.292;2023-03-20T10:53:41;98540.45;;;15.01;58.06
69127;BME280;56688;50.234;19.292;2023-03-20T10:56:13;98540.73;;;15.05;58.40
69127;BME280;56688;50.234;19.292;2023-03-20T10:58:46;98540.86;;;15.04;58.08
69127;BME280;56688;50.234;19.292;2023-03-20T11:01:15;98541.34;;;14.92;58.29
69127;BME280;56688;50.234;19.292;2023-03-20T11:03:43;98535.95;;;14.76;58.71
69127;BME280;56688;50.234;19.292;2023-03-20T11:06:16;98536.82;;;14.67;59.35
69127;BME280;56688;50.234;19.292;2023-03-20T11:08:48;98535.74;;;14.67;59.52
69127;BME280;56688;50.234;19.292;2023-03-20T11:11:33;98532.86;;;14.62;59.57
69127;BME280;56688;50.234;19.292;2023-03-20T11:14:16;98529.39;;;14.62;59.68
69127;BME280;56688;50.234;19.292;2023-03-20T11:16:48;98527.02;;;14.68;59.81
69127;BME280;56688;50.234;19.292;2023-03-20T11:19:18;98525.64;;;14.78;59.79
69127;BME280;56688;50.234;19.292;2023-03-20T11:21:55;98520.34;;;14.86;59.83
69127;BME280;56688;50.234;19.292;2023-03-20T11:27:17;98516.21;;;15.31;58.20
69127;BME280;56688;50.234;19.292;2023-03-20T11:29:47;98507.66;;;15.48;58.05
69127;BME280;56688;50.234;19.292;2023-03-20T11:32:31;98504.93;;;15.62;57.30
69127;BME280;56688;50.234;19.292;2023-03-20T11:37:48;98507.56;;;15.83;56.79
69127;BME280;56688;50.234;19.292;2023-03-20T11:40:21;98508.36;;;15.91;56.88
69127;BME280;56688;50.234;19.292;2023-03-20T11:45:40;98494.98;;;16.24;55.22
69127;BME280;56688;50.234;19.292;2023-03-20T11:48:22;98496.55;;;16.17;54.69
69127;BME280;56688;50.234;19.292;2023-03-20T11:51:05;98493.02;;;16.03;55.52
69127;BME280;56688;50.234;19.292;2023-03-20T11:53:38;98491.84;;;16.04;55.78
69127;BME280;56688;50.234;19.292;2023-03-20T11:56:14;98489.64;;;16.23;55.26
69127;BME280;56688;50.234;19.292;2023-03-20T11:58:55;98484.88;;;16.48;53.62
69127;BME280;56688;50.234;19.292;2023-03-20T12:01:24;98485.20;;;16.58;53.21
69127;BME280;56688;50.234;19.292;2023-03-20T12:06:24;98483.76;;;16.87;53.35
69127;BME280;56688;50.234;19.292;2023-03-20T12:08:57;98477.09;;;17.19;52.62
69127;BME280;56688;50.234;19.292;2023-03-20T12:13:56;98479.14;;;17.45;50.93
69127;BME280;56688;50.234;19.292;2023-03-20T12:16:26;98478.38;;;17.34;50.49
69127;BME280;56688;50.234;19.292;2023-03-20T12:19:01;98478.09;;;17.33;50.79
69127;BME280;56688;50.234;19.292;2023-03-20T12:26:34;98480.92;;;17.23;50.62
69127;BME280;56688;50.234;19.292;2023-03-20T12:29:07;98480.87;;;17.12;51.47
69127;BME280;56688;50.234;19.292;2023-03-20T12:31:47;98479.39;;;17.14;51.68
69127;BME280;56688;50.234;19.292;2023-03-20T12:34:20;98483.02;;;17.15;52.13
69127;BME280;56688;50.234;19.292;2023-03-20T12:36:50;98484.69;;;17.14;51.53
69127;BME280;56688;50.234;19.292;2023-03-20T12:39:22;98474.56;;;17.14;51.44
69127;BME280;56688;50.234;19.292;2023-03-20T12:42:01;98473.27;;;17.17;51.59
69127;BME280;56688;50.234;19.292;2023-03-20T12:44:47;98470.10;;;17.49;51.41
69127;BME280;56688;50.234;19.292;2023-03-20T12:50:40;98467.42;;;17.81;49.92
69127;BME280;56688;50.234;19.292;2023-03-20T12:53:14;98464.79;;;17.76;49.96
69127;BME280;56688;50.234;19.292;2023-03-20T12:58:43;98467.02;;;17.47;50.31
69127;BME280;56688;50.234;19.292;2023-03-20T13:01:18;98464.69;;;17.37;50.70
69127;BME280;56688;50.234;19.292;2023-03-20T13:03:51;98467.66;;;17.26;50.58
69127;BME280;56688;50.234;19.292;2023-03-20T13:06:31;98472.92;;;17.10;50.95
69127;BME280;56688;50.234;19.292;2023-03-20T13:14:38;98468.02;;;16.45;52.70
69127;BME280;56688;50.234;19.292;2023-03-20T13:25:15;98466.88;;;15.85;54.13
69127;BME280;56688;50.234;19.292;2023-03-20T13:27:52;98462.17;;;15.74;54.57
69127;BME280;56688;50.234;19.292;2023-03-20T13:35:52;98460.69;;;15.59;55.26
69127;BME280;56688;50.234;19.292;2023-03-20T13:38:23;98456.50;;;15.50;55.16
69127;BME280;56688;50.234;19.292;2023-03-20T13:40:59;98457.71;;;15.44;55.85
69127;BME280;56688;50.234;19.292;2023-03-20T13:43:47;98455.66;;;15.46;56.01
69127;BME280;56688;50.234;19.292;2023-03-20T13:46:17;98453.31;;;15.53;56.00
69127;BME280;56688;50.234;19.292;2023-03-20T13:48:45;98455.67;;;15.59;55.79
69127;BME280;56688;50.234;19.292;2023-03-20T13:51:22;98451.61;;;15.65;55.49
69127;BME280;56688;50.234;19.292;2023-03-20T13:56:55;98455.95;;;15.71;55.46
69127;BME280;56688;50.234;19.292;2023-03-20T14:04:33;98456.24;;;15.54;55.74
69127;BME280;56688;50.234;19.292;2023-03-20T14:07:01;98451.48;;;15.46;55.76
69127;BME280;56688;50.234;19.292;2023-03-20T14:09:32;98455.40;;;15.37;55.98
69127;BME280;56688;50.234;19.292;2023-03-20T14:12:04;98454.09;;;15.32;56.16
69127;BME280;56688;50.234;19.292;2023-03-20T14:14:39;98454.55;;;15.26;56.16
69127;BME280;56688;50.234;19.292;2023-03-20T14:17:11;98452.70;;;15.19;56.41
69127;BME280;56688;50.234;19.292;2023-03-20T14:19:40;98455.50;;;15.11;56.66
69127;BME280;56688;50.234;19.292;2023-03-20T14:22:14;98454.45;;;15.01;56.85
69127;BME280;56688;50.234;19.292;2023-03-20T14:24:49;98457.91;;;14.90;57.14
69127;BME280;56688;50.234;19.292;2023-03-20T14:27:18;98460.02;;;14.78;57.48
69127;BME280;56688;50.234;19.292;2023-03-20T14:35:36;98464.21;;;14.52;58.57
69127;BME280;56688;50.234;19.292;2023-03-20T14:40:54;98462.46;;;14.38;59.06
69127;BME280;56688;50.234;19.292;2023-03-20T14:43:51;98461.95;;;14.32;59.54
69127;BME280;56688;50.234;19.292;2023-03-20T14:46:36;98457.75;;;14.30;60.22
69127;BME280;56688;50.234;19.292;2023-03-20T14:55:28;98459.52;;;14.09;64.15
69127;BME280;56688;50.234;19.292;2023-03-20T14:58:00;98458.88;;;14.01;64.03
69127;BME280;56688;50.234;19.292;2023-03-20T15:00:33;98458.56;;;13.94;64.22
69127;BME280;56688;50.234;19.292;2023-03-20T15:03:07;98458.83;;;13.87;64.41
69127;BME280;56688;50.234;19.292;2023-03-20T15:05:37;98453.56;;;13.80;64.76
69127;BME280;56688;50.234;19.292;2023-03-20T15:08:08;98455.88;;;13.77;64.96
69127;BME280;56688;50.234;19.292;2023-03-20T15:10:44;98454.30;;;13.77;65.13
69127;BME280;56688;50.234;19.292;2023-03-20T15:13:13;98452.53;;;13.77;65.43
69127;BME280;56688;50.234;19.292;2023-03-20T15:15:57;98450.18;;;13.75;65.96
69127;BME280;56688;50.234;19.292;2023-03-20T15:18:26;98453.38;;;13.75;66.58
69127;BME280;56688;50.234;19.292;2023-03-20T15:20:55;98448.14;;;13.71;66.94
69127;BME280;56688;50.234;19.292;2023-03-20T15:23:23;98446.56;;;13.67;66.70
69127;BME280;56688;50.234;19.292;2023-03-20T15:25:51;98440.71;;;13.60;66.52
69127;BME280;56688;50.234;19.292;2023-03-20T15:28:22;98438.86;;;13.54;67.06
69127;BME280;56688;50.234;19.292;2023-03-20T15:30:51;98440.10;;;13.50;67.17
69127;BME280;56688;50.234;19.292;2023-03-20T15:33:26;98441.42;;;13.48;67.56